Zen — FAB5718 — position and weather

sailwx.info

Track history (hours):
 
Tides and Currents Weather Stations Pressure Air Temp Water Temp Dewpoint Dewpoint Depression Visibility Wind Speed Wind Dir Waves Ship Positions

Zen

Last reported at 2018-Feb-19 05:58 UTC. Time now 2018-Feb-19 06:13 UTC.
Position N 14°28' W 060°52'.

Length 15 m.

Type: Sailing vessel. MMSI: 347013910.

Date/timePositionNaut miles runAvg speedWind from/ knotsBaromVisibWave heightAir tempDewpointWater temp
2018-Feb-19 05:58N 14°28' W 060°52'0 0.0
2018-Feb-19 05:28N 14°28' W 060°52'0 0.0
2018-Feb-19 04:58N 14°28' W 060°52'0 0.0
2018-Feb-19 04:28N 14°28' W 060°52'0 0.0
2018-Feb-19 03:52N 14°28' W 060°52'0 0.0
2018-Feb-19 03:28N 14°28' W 060°52'0 0.0
2018-Feb-19 02:58N 14°28' W 060°52'0 0.0
2018-Feb-19 02:28N 14°28' W 060°52'0 0.0
2018-Feb-19 01:58N 14°28' W 060°52'0 0.0
2018-Feb-19 01:28N 14°28' W 060°52'0 0.0
2018-Feb-19 00:58N 14°28' W 060°52'0 0.0
2018-Feb-19 00:28N 14°28' W 060°52'0 0.0
2018-Feb-18 23:58N 14°28' W 060°52'0 0.0
2018-Feb-18 23:28N 14°28' W 060°52'0 0.0
2018-Feb-18 22:58N 14°28' W 060°52'0 0.0
2018-Feb-18 22:28N 14°28' W 060°52'0 0.0
2018-Feb-18 21:58N 14°28' W 060°52'2 4.6
2018-Feb-18 21:30N 14°27' W 060°54'3 6.3
2018-Feb-18 20:59N 14°26' W 060°57'2 0.0
2018-Feb-16 20:39N 14°26' W 060°55'1 6.2
2018-Feb-16 20:29N 14°27' W 060°54'2 4.3
2018-Feb-16 19:59N 14°28' W 060°52'0 0.0
2018-Feb-16 19:29N 14°28' W 060°52'0 0.0
2018-Feb-16 18:59N 14°28' W 060°52'0 0.0
2018-Feb-16 18:29N 14°28' W 060°52'0 0.0
2018-Feb-16 17:58N 14°28' W 060°52'0 0.0
2018-Feb-16 17:28N 14°28' W 060°52'0 0.0
2018-Feb-16 16:58N 14°28' W 060°52'0 0.0
2018-Feb-16 16:23N 14°28' W 060°52'0 0.0
2018-Feb-16 15:59N 14°28' W 060°52'0 0.0
2018-Feb-16 15:29N 14°28' W 060°52'0 0.0
2018-Feb-16 14:59N 14°28' W 060°52'0 0.0
2018-Feb-16 14:29N 14°28' W 060°52'0 0.0
2018-Feb-16 13:58N 14°28' W 060°52'0 0.0
2018-Feb-16 13:29N 14°28' W 060°52'0 0.0
2018-Feb-16 12:59N 14°28' W 060°52'0 0.0
2018-Feb-16 12:28N 14°28' W 060°52'0 0.0
2018-Feb-16 11:59N 14°28' W 060°52'0 0.0
2018-Feb-16 11:23N 14°28' W 060°52'0 0.0
2018-Feb-16 10:58N 14°28' W 060°52'0 0.0
2018-Feb-16 10:26N 14°28' W 060°52'0 0.0
2018-Feb-16 09:59N 14°28' W 060°52'0 0.0
2018-Feb-16 09:29N 14°28' W 060°52'0 0.0
2018-Feb-16 08:59N 14°28' W 060°52'0 0.0
2018-Feb-16 08:25N 14°28' W 060°52'0 0.0
2018-Feb-16 07:59N 14°28' W 060°52'0 0.0
2018-Feb-16 07:29N 14°28' W 060°52'0 0.0
2018-Feb-16 06:20N 14°28' W 060°52'0 0.0
2018-Feb-16 05:58N 14°28' W 060°52'0 0.0
2018-Feb-16 05:28N 14°28' W 060°52'0 0.0
2018-Feb-16 04:53N 14°28' W 060°52'0 0.0
2018-Feb-16 04:29N 14°28' W 060°52'0 0.0
2018-Feb-16 03:58N 14°28' W 060°52'0 0.0
2018-Feb-16 03:29N 14°28' W 060°52'0 0.0
2018-Feb-16 02:58N 14°28' W 060°52'0 0.0
2018-Feb-16 02:28N 14°28' W 060°52'0 0.0
2018-Feb-16 01:59N 14°28' W 060°52'0 0.0
2018-Feb-16 01:28N 14°28' W 060°52'0 0.0
2018-Feb-16 00:59N 14°28' W 060°52'0 0.0
2018-Feb-16 00:28N 14°28' W 060°52'0 0.0
2018-Feb-15 23:58N 14°28' W 060°52'0 0.0
2018-Feb-15 23:19N 14°28' W 060°52'0 0.0
2018-Feb-15 22:59N 14°28' W 060°52'0 0.0
2018-Feb-15 22:29N 14°28' W 060°52'0 0.0
2018-Feb-15 21:58N 14°28' W 060°52'0 0.0
2018-Feb-15 21:28N 14°28' W 060°52'0 0.0
2018-Feb-15 20:59N 14°28' W 060°52'0 0.0
2018-Feb-15 20:28N 14°28' W 060°52'0 0.0
2018-Feb-15 19:58N 14°28' W 060°52'0 0.0
2018-Feb-15 19:28N 14°28' W 060°52'0 0.0
2018-Feb-15 18:58N 14°28' W 060°52'0 0.0
2018-Feb-15 18:28N 14°28' W 060°52'0 0.0
2018-Feb-15 17:59N 14°28' W 060°52'0 0.0
2018-Feb-15 17:28N 14°28' W 060°52'0 0.0
2018-Feb-15 16:59N 14°28' W 060°52'0 0.2
2018-Feb-15 16:25N 14°28' W 060°52'1 2.9
2018-Feb-15 16:00N 14°27' W 060°53'3 5.8
2018-Feb-15 15:30N 14°26' W 060°56'3 5.8
2018-Feb-15 14:56N 14°26' W 060°59'  
Track history (hours):
 
Tides and Currents Weather Stations Pressure Air Temp Water Temp Dewpoint Dewpoint Depression Visibility Wind Speed Wind Dir Waves Ship Positions

Zen

Last reported at 2018-Feb-19 05:58 UTC. Time now 2018-Feb-19 06:13 UTC.
Position N 14°28' W 060°52'.

Length 15 m.

Type: Sailing vessel. MMSI: 347013910.

Date/timePositionNaut miles runAvg speedWind from/ knotsBaromVisibWave heightAir tempDewpointWater temp
2018-Feb-19 05:58N 14°28' W 060°52'0 0.0
2018-Feb-19 05:28N 14°28' W 060°52'0 0.0
2018-Feb-19 04:58N 14°28' W 060°52'0 0.0
2018-Feb-19 04:28N 14°28' W 060°52'0 0.0
2018-Feb-19 03:52N 14°28' W 060°52'0 0.0
2018-Feb-19 03:28N 14°28' W 060°52'0 0.0
2018-Feb-19 02:58N 14°28' W 060°52'0 0.0
2018-Feb-19 02:28N 14°28' W 060°52'0 0.0
2018-Feb-19 01:58N 14°28' W 060°52'0 0.0
2018-Feb-19 01:28N 14°28' W 060°52'0 0.0
2018-Feb-19 00:58N 14°28' W 060°52'0 0.0
2018-Feb-19 00:28N 14°28' W 060°52'0 0.0
2018-Feb-18 23:58N 14°28' W 060°52'0 0.0
2018-Feb-18 23:28N 14°28' W 060°52'0 0.0
2018-Feb-18 22:58N 14°28' W 060°52'0 0.0
2018-Feb-18 22:28N 14°28' W 060°52'0 0.0
2018-Feb-18 21:58N 14°28' W 060°52'2 4.6
2018-Feb-18 21:30N 14°27' W 060°54'3 6.3
2018-Feb-18 20:59N 14°26' W 060°57'2 0.0
2018-Feb-16 20:39N 14°26' W 060°55'1 6.2
2018-Feb-16 20:29N 14°27' W 060°54'2 4.3
2018-Feb-16 19:59N 14°28' W 060°52'0 0.0
2018-Feb-16 19:29N 14°28' W 060°52'0 0.0
2018-Feb-16 18:59N 14°28' W 060°52'0 0.0
2018-Feb-16 18:29N 14°28' W 060°52'0 0.0
2018-Feb-16 17:58N 14°28' W 060°52'0 0.0
2018-Feb-16 17:28N 14°28' W 060°52'0 0.0
2018-Feb-16 16:58N 14°28' W 060°52'0 0.0
2018-Feb-16 16:23N 14°28' W 060°52'0 0.0
2018-Feb-16 15:59N 14°28' W 060°52'0 0.0
2018-Feb-16 15:29N 14°28' W 060°52'0 0.0
2018-Feb-16 14:59N 14°28' W 060°52'0 0.0
2018-Feb-16 14:29N 14°28' W 060°52'0 0.0
2018-Feb-16 13:58N 14°28' W 060°52'0 0.0
2018-Feb-16 13:29N 14°28' W 060°52'0 0.0
2018-Feb-16 12:59N 14°28' W 060°52'0 0.0
2018-Feb-16 12:28N 14°28' W 060°52'0 0.0
2018-Feb-16 11:59N 14°28' W 060°52'0 0.0
2018-Feb-16 11:23N 14°28' W 060°52'0 0.0
2018-Feb-16 10:58N 14°28' W 060°52'0 0.0
2018-Feb-16 10:26N 14°28' W 060°52'0 0.0
2018-Feb-16 09:59N 14°28' W 060°52'0 0.0
2018-Feb-16 09:29N 14°28' W 060°52'0 0.0
2018-Feb-16 08:59N 14°28' W 060°52'0 0.0
2018-Feb-16 08:25N 14°28' W 060°52'0 0.0
2018-Feb-16 07:59N 14°28' W 060°52'0 0.0
2018-Feb-16 07:29N 14°28' W 060°52'0 0.0
2018-Feb-16 06:20N 14°28' W 060°52'0 0.0
2018-Feb-16 05:58N 14°28' W 060°52'0 0.0
2018-Feb-16 05:28N 14°28' W 060°52'0 0.0
2018-Feb-16 04:53N 14°28' W 060°52'0 0.0
2018-Feb-16 04:29N 14°28' W 060°52'0 0.0
2018-Feb-16 03:58N 14°28' W 060°52'0 0.0
2018-Feb-16 03:29N 14°28' W 060°52'0 0.0
2018-Feb-16 02:58N 14°28' W 060°52'0 0.0
2018-Feb-16 02:28N 14°28' W 060°52'0 0.0
2018-Feb-16 01:59N 14°28' W 060°52'0 0.0
2018-Feb-16 01:28N 14°28' W 060°52'0 0.0
2018-Feb-16 00:59N 14°28' W 060°52'0 0.0
2018-Feb-16 00:28N 14°28' W 060°52'0 0.0
2018-Feb-15 23:58N 14°28' W 060°52'0 0.0
2018-Feb-15 23:19N 14°28' W 060°52'0 0.0
2018-Feb-15 22:59N 14°28' W 060°52'0 0.0
2018-Feb-15 22:29N 14°28' W 060°52'0 0.0
2018-Feb-15 21:58N 14°28' W 060°52'0 0.0
2018-Feb-15 21:28N 14°28' W 060°52'0 0.0
2018-Feb-15 20:59N 14°28' W 060°52'0 0.0
2018-Feb-15 20:28N 14°28' W 060°52'0 0.0
2018-Feb-15 19:58N 14°28' W 060°52'0 0.0
2018-Feb-15 19:28N 14°28' W 060°52'0 0.0
2018-Feb-15 18:58N 14°28' W 060°52'0 0.0
2018-Feb-15 18:28N 14°28' W 060°52'0 0.0
2018-Feb-15 17:59N 14°28' W 060°52'0 0.0
2018-Feb-15 17:28N 14°28' W 060°52'0 0.0
2018-Feb-15 16:59N 14°28' W 060°52'0 0.2
2018-Feb-15 16:25N 14°28' W 060°52'1 2.9
2018-Feb-15 16:00N 14°27' W 060°53'3 5.8
2018-Feb-15 15:30N 14°26' W 060°56'3 5.8
2018-Feb-15 14:56N 14°26' W 060°59'  

Dump ship's entire track history